Time;durP1;ratioP1;P1;durP2;ratioP2;P2;SDS_P1;SDS_P2;PMS_P1;PMS_P2;Temp;Humidity;BMP_temperature;BMP_pressure;BME280_temperature;BME280_humidity;BME280_pressure;Samples;Min_cycle;Max_cycle;Signal;HPM_P1;HPM_P2
2023/10/24 04:01:33;;;;;;;13.80;9.18;;;10.50;99.90;;;;;;5459672;23;20243;-70
2023/10/24 04:04:00;;;;;;;18.50;10.25;;;10.60;99.90;;;;;;4974202;28;20220;-70
2023/10/24 04:06:27;;;;;;;11.75;10.30;;;10.50;99.90;;;;;;4972428;28;20209;-70
2023/10/24 04:08:54;;;;;;;12.52;9.32;;;10.60;99.90;;;;;;4969180;28;20205;-71
2023/10/24 04:11:21;;;;;;;12.30;8.80;;;10.60;99.90;;;;;;4972822;28;20220;-71
2023/10/24 04:13:48;;;;;;;14.63;9.70;;;10.60;99.90;;;;;;4966526;28;20208;-71
2023/10/24 04:16:15;;;;;;;13.27;8.27;;;10.60;99.90;;;;;;4965321;28;20245;-71
2023/10/24 04:18:44;;;;;;;13.07;10.23;;;10.60;99.90;;;;;;4967710;28;20214;-71
2023/10/24 04:21:14;;;;;;;14.50;9.25;;;10.60;99.90;;;;;;4968056;28;20225;-72
2023/10/24 04:23:41;;;;;;;12.52;9.32;;;10.60;99.90;;;;;;4972159;28;20213;-71
2023/10/24 04:26:09;;;;;;;13.23;9.55;;;10.60;99.90;;;;;;4967298;28;20208;-73
2023/10/24 04:28:36;;;;;;;11.68;9.30;;;10.60;99.90;;;;;;4968350;28;20627;-71
2023/10/24 04:31:03;;;;;;;14.43;9.60;;;10.60;99.90;;;;;;4965154;28;20881;-72
2023/10/24 04:33:30;;;;;;;11.13;9.48;;;10.60;99.90;;;;;;4968079;28;20624;-72
2023/10/24 04:35:58;;;;;;;15.90;9.48;;;10.60;99.90;;;;;;4969102;28;20225;-72
2023/10/24 04:38:25;;;;;;;11.02;8.70;;;10.60;99.90;;;;;;4970063;28;20229;-73
2023/10/24 04:40:52;;;;;;;11.23;9.40;;;10.60;99.90;;;;;;4968245;28;20571;-72
2023/10/24 04:43:19;;;;;;;17.13;8.65;;;10.60;99.90;;;;;;4967403;28;20565;-72
2023/10/24 04:45:46;;;;;;;10.65;8.25;;;10.60;99.90;;;;;;4970273;28;20207;-72
2023/10/24 04:48:13;;;;;;;12.32;9.35;;;10.70;99.90;;;;;;4966784;28;20201;-72
2023/10/24 04:50:40;;;;;;;12.15;8.60;;;10.70;99.90;;;;;;4964009;28;20230;-72
2023/10/24 04:53:08;;;;;;;12.48;9.10;;;10.60;99.90;;;;;;4971678;28;20229;-72
2023/10/24 04:55:35;;;;;;;10.40;9.30;;;10.60;99.90;;;;;;4969685;28;20236;-72
2023/10/24 04:58:02;;;;;;;14.00;9.30;;;10.60;99.90;;;;;;4962259;28;20701;-72
2023/10/24 05:00:29;;;;;;;11.65;9.13;;;10.60;99.90;;;;;;4966027;28;20602;-72
2023/10/24 05:02:56;;;;;;;12.93;8.63;;;10.60;99.90;;;;;;4971663;28;20706;-72
2023/10/24 05:05:22;;;;;;;13.85;9.15;;;10.60;99.90;;;;;;4974695;28;20197;-73
2023/10/24 05:07:49;;;;;;;9.73;7.65;;;10.60;99.90;;;;;;4974529;28;20218;-73
2023/10/24 05:10:17;;;;;;;10.10;8.45;;;10.60;99.90;;;;;;4969449;28;20212;-73
2023/10/24 05:12:44;;;;;;;11.48;8.57;;;10.60;99.90;;;;;;4962135;28;20207;-73
2023/10/24 05:15:11;;;;;;;13.50;9.05;;;10.50;99.90;;;;;;4978068;28;20225;-73
2023/10/24 05:17:38;;;;;;;13.90;9.88;;;10.60;99.90;;;;;;4975951;28;20210;-73
2023/10/24 05:20:07;;;;;;;14.43;9.85;;;10.60;99.90;;;;;;4975083;28;20207;-73
2023/10/24 05:22:34;;;;;;;12.40;9.27;;;10.50;99.90;;;;;;4969695;28;20206;-73
2023/10/24 05:25:01;;;;;;;14.15;9.63;;;10.50;99.90;;;;;;4966567;28;20216;-73
2023/10/24 05:27:30;;;;;;;9.93;8.65;;;10.50;99.90;;;;;;4967498;28;20209;-73
2023/10/24 05:29:57;;;;;;;15.88;10.13;;;10.60;99.90;;;;;;4970004;28;20718;-73
2023/10/24 05:32:24;;;;;;;13.57;9.43;;;10.50;99.90;;;;;;4970378;28;20229;-72
2023/10/24 05:34:51;;;;;;;9.68;7.85;;;10.50;99.90;;;;;;4963665;28;20249;-72
2023/10/24 05:37:18;;;;;;;11.57;8.50;;;10.50;99.90;;;;;;4960839;28;20217;-73
2023/10/24 05:39:45;;;;;;;12.02;9.10;;;10.50;99.90;;;;;;4969714;28;20214;-73
2023/10/24 05:42:12;;;;;;;11.63;9.25;;;10.60;99.90;;;;;;4965155;28;20225;-73
2023/10/24 05:44:40;;;;;;;11.07;8.85;;;10.50;99.90;;;;;;4969138;28;20599;-72
2023/10/24 05:47:07;;;;;;;11.25;9.07;;;10.60;99.90;;;;;;4964986;28;20582;-73
2023/10/24 05:49:34;;;;;;;13.38;7.80;;;10.50;99.90;;;;;;4965300;28;20205;-72
2023/10/24 05:52:00;;;;;;;10.73;9.18;;;10.50;99.90;;;;;;4965754;28;20686;-72
2023/10/24 05:54:27;;;;;;;12.23;9.10;;;10.50;99.90;;;;;;4962061;28;20209;-73
2023/10/24 05:56:54;;;;;;;12.75;9.05;;;10.50;99.90;;;;;;4958577;28;20233;-72
2023/10/24 05:59:21;;;;;;;11.43;8.35;;;10.50;99.90;;;;;;4964924;28;20204;-72
2023/10/24 06:01:49;;;;;;;13.00;9.77;;;10.50;99.90;;;;;;4966947;28;20239;-73
2023/10/24 06:04:15;;;;;;;10.80;8.80;;;10.50;99.90;;;;;;4967931;28;20682;-72
2023/10/24 06:06:42;;;;;;;11.40;8.60;;;10.60;99.90;;;;;;4960054;28;20201;-73
2023/10/24 06:09:12;;;;;;;10.05;7.80;;;10.50;99.90;;;;;;4965486;28;20217;-72
2023/10/24 06:11:39;;;;;;;10.73;9.43;;;10.60;99.90;;;;;;4967188;28;20229;-72
2023/10/24 06:14:05;;;;;;;8.45;7.63;;;10.60;99.90;;;;;;4958854;28;20216;-71
2023/10/24 06:16:32;;;;;;;11.85;8.88;;;10.60;99.90;;;;;;4962396;28;20826;-71
2023/10/24 06:19:00;;;;;;;10.50;8.48;;;10.60;99.90;;;;;;4967961;28;20601;-71
2023/10/24 06:21:27;;;;;;;10.23;8.77;;;10.60;99.90;;;;;;4966628;28;20221;-71
2023/10/24 06:23:54;;;;;;;11.98;8.80;;;10.60;99.90;;;;;;4961586;28;20212;-71
2023/10/24 06:26:21;;;;;;;12.63;9.48;;;10.60;99.90;;;;;;4964147;28;20196;-71
2023/10/24 06:28:47;;;;;;;13.60;9.98;;;10.60;99.90;;;;;;4966222;28;20708;-70
2023/10/24 06:31:14;;;;;;;10.48;8.43;;;10.60;99.90;;;;;;4960020;28;20234;-70
2023/10/24 06:33:41;;;;;;;8.98;8.18;;;10.60;99.90;;;;;;4969818;28;20289;-71
2023/10/24 06:36:10;;;;;;;16.23;9.23;;;10.70;99.90;;;;;;4958616;28;20236;-70
2023/10/24 06:38:35;;;;;;;10.40;8.60;;;10.70;99.90;;;;;;4966910;28;20295;-71
2023/10/24 06:41:02;;;;;;;11.17;8.00;;;10.70;99.90;;;;;;4955522;28;20236;-70
2023/10/24 06:43:29;;;;;;;10.85;9.07;;;10.70;99.90;;;;;;4962903;28;20209;-70
2023/10/24 06:45:56;;;;;;;11.55;9.45;;;10.70;99.90;;;;;;4962159;28;20202;-70
2023/10/24 06:48:22;;;;;;;14.60;9.40;;;10.70;99.90;;;;;;4963482;28;20201;-69
2023/10/24 06:50:49;;;;;;;11.52;8.90;;;10.70;99.90;;;;;;4955897;28;20238;-72
2023/10/24 06:53:17;;;;;;;17.25;10.00;;;10.70;99.90;;;;;;4967276;28;20690;-71
2023/10/24 06:55:44;;;;;;;15.77;7.90;;;10.80;99.90;;;;;;4961151;28;20221;-70
2023/10/24 06:58:10;;;;;;;11.10;8.90;;;10.80;99.90;;;;;;4954387;28;20230;-71
2023/10/24 07:00:37;;;;;;;14.40;10.00;;;10.80;99.90;;;;;;4960228;28;20600;-73
2023/10/24 07:03:04;;;;;;;12.57;8.93;;;10.80;99.90;;;;;;4965846;28;20590;-71
2023/10/24 07:05:32;;;;;;;11.32;9.30;;;10.80;99.90;;;;;;4972558;28;20206;-72
2023/10/24 07:07:59;;;;;;;16.02;9.15;;;10.90;99.90;;;;;;4961085;28;20681;-72
2023/10/24 07:10:27;;;;;;;11.85;9.25;;;10.90;99.90;;;;;;4968626;28;20232;-70
2023/10/24 07:12:54;;;;;;;11.60;8.30;;;10.90;99.90;;;;;;4968874;28;20208;-71
2023/10/24 07:15:21;;;;;;;10.80;9.00;;;10.90;99.90;;;;;;4961964;28;20206;-71
2023/10/24 07:17:47;;;;;;;16.75;9.85;;;11.00;99.90;;;;;;4972167;28;20210;-70
2023/10/24 07:20:14;;;;;;;17.23;9.73;;;11.00;99.90;;;;;;4967090;28;20209;-71
2023/10/24 07:22:41;;;;;;;14.60;9.97;;;11.00;99.90;;;;;;4964254;28;20240;-70
2023/10/24 07:25:08;;;;;;;10.35;8.98;;;11.00;99.90;;;;;;4965426;28;20489;-68
2023/10/24 07:27:36;;;;;;;10.20;9.20;;;11.00;99.90;;;;;;4967460;28;20669;-70
2023/10/24 07:30:03;;;;;;;10.98;9.30;;;11.00;99.90;;;;;;4968295;28;20681;-70
2023/10/24 07:32:30;;;;;;;9.70;8.57;;;11.00;99.90;;;;;;4962640;28;20252;-71
2023/10/24 07:34:57;;;;;;;13.23;9.43;;;11.00;99.90;;;;;;4962786;28;20217;-70
2023/10/24 07:37:24;;;;;;;12.65;9.77;;;11.00;99.90;;;;;;4966213;28;20741;-70
2023/10/24 07:39:51;;;;;;;13.32;9.35;;;11.00;99.90;;;;;;4971441;28;20207;-71
2023/10/24 07:42:18;;;;;;;12.60;9.68;;;11.00;99.90;;;;;;4961519;28;20253;-71
2023/10/24 07:44:46;;;;;;;14.10;8.82;;;11.00;99.90;;;;;;4970865;28;20206;-72
2023/10/24 07:47:12;;;;;;;11.95;9.85;;;11.00;99.90;;;;;;4961172;28;20206;-70
2023/10/24 07:49:39;;;;;;;13.40;9.70;;;11.00;99.90;;;;;;4966978;28;20336;-71
2023/10/24 07:52:06;;;;;;;13.35;10.48;;;11.10;99.90;;;;;;4962870;28;20236;-70
2023/10/24 07:54:33;;;;;;;13.85;10.63;;;11.10;99.90;;;;;;4965446;28;20214;-71
2023/10/24 07:57:06;;;;;;;11.68;10.05;;;11.10;99.90;;;;;;4961643;28;20697;-72
2023/10/24 07:59:35;;;;;;;13.77;10.00;;;11.10;99.90;;;;;;4964108;28;20409;-71
2023/10/24 08:02:10;;;;;;;14.15;9.35;;;11.10;99.90;;;;;;4969976;28;20238;-71
2023/10/24 08:04:37;;;;;;;12.98;8.90;;;11.10;99.90;;;;;;4968606;28;20224;-71
2023/10/24 08:07:07;;;;;;;11.48;9.68;;;11.10;99.90;;;;;;4964244;28;20301;-70
2023/10/24 08:09:37;;;;;;;10.90;9.48;;;11.10;99.90;;;;;;4965493;28;20207;-70
2023/10/24 08:12:04;;;;;;;13.73;9.90;;;11.10;99.90;;;;;;4963725;28;20233;-71
2023/10/24 08:14:35;;;;;;;11.40;10.17;;;11.10;99.90;;;;;;4967802;28;20208;-71
2023/10/24 08:17:03;;;;;;;10.95;9.13;;;11.10;99.90;;;;;;4966290;28;20490;-71
2023/10/24 08:19:31;;;;;;;14.10;9.30;;;11.10;99.90;;;;;;4963734;28;20206;-68
2023/10/24 08:21:58;;;;;;;9.98;8.98;;;11.20;99.90;;;;;;4970648;28;20989;-70
2023/10/24 08:24:24;;;;;;;11.43;9.23;;;11.20;99.90;;;;;;4961795;28;20212;-70
2023/10/24 08:26:51;;;;;;;9.63;8.67;;;11.20;99.90;;;;;;4962519;28;20487;-69
2023/10/24 08:29:18;;;;;;;11.43;9.63;;;11.20;99.90;;;;;;4975203;28;20467;-68
2023/10/24 08:31:45;;;;;;;11.27;9.73;;;11.30;99.90;;;;;;4964350;28;20231;-69
2023/10/24 08:34:12;;;;;;;11.87;8.60;;;11.30;99.90;;;;;;4960211;28;20475;-70
2023/10/24 08:36:40;;;;;;;10.20;9.17;;;11.20;99.90;;;;;;4959988;28;20513;-69
2023/10/24 08:39:06;;;;;;;11.30;8.80;;;11.30;99.90;;;;;;4961592;28;20489;-69
2023/10/24 08:41:34;;;;;;;8.77;7.87;;;11.30;99.90;;;;;;4962697;28;20571;-69
2023/10/24 08:44:02;;;;;;;9.03;8.03;;;11.30;99.90;;;;;;4968225;28;20489;-69
2023/10/24 08:46:29;;;;;;;10.30;8.67;;;11.30;99.90;;;;;;4968901;28;20467;-69
2023/10/24 08:48:58;;;;;;;10.32;8.68;;;11.40;99.90;;;;;;4971479;28;20501;-69
2023/10/24 08:51:33;;;;;;;10.50;7.70;;;11.50;99.90;;;;;;4966148;28;20316;-69
2023/10/24 08:54:03;;;;;;;12.20;9.00;;;11.50;99.90;;;;;;4962261;28;21023;-69
2023/10/24 08:56:38;;;;;;;11.03;9.77;;;11.50;99.90;;;;;;4959200;28;20482;-69
2023/10/24 08:59:12;;;;;;;12.27;9.27;;;11.50;99.90;;;;;;4971218;28;20963;-68
2023/10/24 09:01:44;;;;;;;10.03;9.00;;;11.50;99.90;;;;;;4971471;28;20505;-69
2023/10/24 09:04:12;;;;;;;8.70;7.80;;;11.50;99.90;;;;;;4962297;28;20993;-70
2023/10/24 09:06:40;;;;;;;9.30;8.10;;;11.50;99.90;;;;;;4959525;28;20474;-70
2023/10/24 09:09:12;;;;;;;11.80;9.43;;;11.50;99.90;;;;;;4961893;28;21043;-70
2023/10/24 09:11:53;;;;;;;9.77;8.43;;;11.50;99.90;;;;;;4964550;28;20491;-69
2023/10/24 09:14:21;;;;;;;11.03;9.90;;;11.60;99.90;;;;;;4963521;28;20467;-69
2023/10/24 09:17:00;;;;;;;12.77;8.40;;;11.60;99.90;;;;;;4968609;28;21014;-69
2023/10/24 09:19:31;;;;;;;9.60;8.60;;;11.70;99.90;;;;;;4964728;28;20470;-70
2023/10/24 09:21:59;;;;;;;13.60;10.03;;;11.70;99.90;;;;;;4961826;28;20549;-69
2023/10/24 09:24:30;;;;;;;10.50;8.30;;;11.80;99.90;;;;;;4968612;28;21068;-70
2023/10/24 09:26:59;;;;;;;11.67;9.27;;;11.80;99.90;;;;;;4969027;28;20517;-72
2023/10/24 09:29:27;;;;;;;9.83;8.03;;;11.80;99.90;;;;;;4970465;28;21036;-70
2023/10/24 09:31:58;;;;;;;10.43;9.17;;;11.80;99.90;;;;;;4972327;28;20923;-69
2023/10/24 09:34:27;;;;;;;12.23;9.73;;;11.90;99.90;;;;;;4978574;28;20482;-69
2023/10/24 09:37:07;;;;;;;10.23;8.87;;;12.00;99.90;;;;;;4970129;28;20574;-69
2023/10/24 09:39:54;;;;;;;9.67;8.77;;;12.00;99.90;;;;;;4966183;28;20740;-69
2023/10/24 09:42:28;;;;;;;10.50;8.20;;;12.00;99.90;;;;;;4961527;28;20874;-70
2023/10/24 09:44:57;;;;;;;9.03;8.13;;;12.10;99.90;;;;;;4956418;28;20949;-70
2023/10/24 09:47:26;;;;;;;8.33;7.43;;;12.10;99.90;;;;;;4961270;28;20963;-70
2023/10/24 09:49:55;;;;;;;11.60;8.70;;;12.10;99.90;;;;;;4962536;28;20899;-70
2023/10/24 09:52:28;;;;;;;9.20;8.40;;;12.10;99.90;;;;;;4956946;28;20848;-69
2023/10/24 09:54:59;;;;;;;10.30;7.80;;;12.20;99.90;;;;;;4965466;28;20461;-70
2023/10/24 09:57:29;;;;;;;10.33;8.57;;;12.20;99.90;;;;;;4963046;28;20634;-70
2023/10/24 10:00:03;;;;;;;8.20;7.50;;;12.30;99.90;;;;;;4967051;28;20554;-70
2023/10/24 10:02:33;;;;;;;9.33;8.00;;;12.40;99.90;;;;;;4958826;28;20943;-70
2023/10/24 10:05:04;;;;;;;9.57;8.23;;;12.40;99.90;;;;;;4961202;28;20543;-69
2023/10/24 10:07:31;;;;;;;8.20;7.40;;;12.50;99.90;;;;;;4962886;28;20845;-69
2023/10/24 10:10:04;;;;;;;9.03;8.23;;;12.50;99.90;;;;;;4956776;28;20878;-70
2023/10/24 10:12:35;;;;;;;8.10;7.40;;;12.50;99.90;;;;;;4957539;28;20495;-69
2023/10/24 10:15:27;;;;;;;9.93;8.70;;;12.50;99.90;;;;;;4960890;28;20840;-69
2023/10/24 10:18:11;;;;;;;13.27;7.63;;;12.50;99.90;;;;;;4956661;28;20484;-69
2023/10/24 10:20:49;;;;;;;7.90;7.23;;;12.50;99.90;;;;;;4999072;23;21030;-71
2023/10/24 10:23:39;;;;;;;8.80;7.70;;;12.50;99.90;;;;;;4956838;28;20907;-72
2023/10/24 10:26:15;;;;;;;8.40;7.60;;;12.60;99.90;;;;;;4966077;28;20464;-72
2023/10/24 10:29:06;;;;;;;9.17;8.27;;;12.70;99.90;;;;;;4966973;28;20472;-72
2023/10/24 10:31:52;;;;;;;8.43;7.37;;;12.70;99.90;;;;;;4954212;28;20992;-72
2023/10/24 10:34:19;;;;;;;8.53;7.83;;;12.70;99.90;;;;;;4952930;29;20468;-72
2023/10/24 10:37:03;;;;;;;7.03;6.53;;;12.80;99.90;;;;;;4952957;28;20499;-72
2023/10/24 10:39:30;;;;;;;9.83;6.97;;;12.80;99.90;;;;;;4954873;28;20552;-72
2023/10/24 10:41:58;;;;;;;8.30;7.50;;;12.90;99.90;;;;;;4958145;28;20476;-72
2023/10/24 10:44:44;;;;;;;8.27;7.57;;;12.90;99.90;;;;;;4953705;28;20475;-72
2023/10/24 10:47:14;;;;;;;13.43;7.63;;;12.90;99.90;;;;;;4959599;28;20459;-72
2023/10/24 10:49:49;;;;;;;9.03;6.47;;;12.90;99.90;;;;;;4955816;28;20480;-72
2023/10/24 10:52:38;;;;;;;8.40;6.90;;;12.90;99.90;;;;;;4956847;28;20472;-72
2023/10/24 10:55:41;;;;;;;7.00;6.40;;;12.90;99.90;;;;;;4952862;28;20461;-72
2023/10/24 10:58:23;;;;;;;7.33;6.37;;;12.90;99.90;;;;;;4948667;28;20492;-72
2023/10/24 11:01:00;;;;;;;11.37;7.40;;;12.90;99.90;;;;;;4957704;28;20491;-72
2023/10/24 11:03:43;;;;;;;9.03;7.30;;;12.80;99.90;;;;;;4959472;28;20480;-72
2023/10/24 11:06:26;;;;;;;8.10;7.40;;;12.80;99.90;;;;;;4930281;28;20799;-73
2023/10/24 11:09:07;;;;;;;8.40;7.50;;;12.90;99.90;;;;;;4968184;28;20563;-73
2023/10/24 11:11:35;;;;;;;14.03;8.03;;;12.90;99.90;;;;;;4955168;28;20824;-72
2023/10/24 11:14:15;;;;;;;9.03;8.13;;;12.90;99.90;;;;;;4957687;28;20468;-72
2023/10/24 11:16:43;;;;;;;8.40;7.60;;;12.90;99.90;;;;;;4958883;28;20489;-72
2023/10/24 11:19:17;;;;;;;7.70;6.60;;;12.90;99.90;;;;;;4953605;28;20472;-73
2023/10/24 11:21:45;;;;;;;8.00;7.20;;;12.90;99.90;;;;;;4954149;28;20473;-73
2023/10/24 11:24:11;;;;;;;11.70;8.03;;;12.90;99.90;;;;;;4955686;28;20469;-73
2023/10/24 11:26:38;;;;;;;7.57;6.77;;;12.90;99.90;;;;;;4953104;28;20473;-73
2023/10/24 11:29:06;;;;;;;7.90;6.60;;;13.00;99.90;;;;;;4961375;28;20993;-72
2023/10/24 11:31:34;;;;;;;10.93;7.53;;;13.00;99.90;;;;;;4956119;28;20488;-73
2023/10/24 11:34:03;;;;;;;7.50;6.70;;;13.00;99.90;;;;;;4956822;28;20465;-73
2023/10/24 11:36:31;;;;;;;7.53;6.40;;;13.00;99.90;;;;;;4958999;28;20477;-72
2023/10/24 11:38:58;;;;;;;7.43;6.80;;;13.00;99.90;;;;;;4953881;28;20469;-72
2023/10/24 11:41:26;;;;;;;8.47;7.03;;;12.90;99.90;;;;;;4955662;28;20516;-74
2023/10/24 11:43:53;;;;;;;10.40;8.97;;;12.90;99.90;;;;;;4961842;28;20832;-74
2023/10/24 11:46:20;;;;;;;9.67;7.90;;;12.90;99.90;;;;;;4955487;28;20464;-73
2023/10/24 11:48:48;;;;;;;8.03;7.23;;;13.00;99.90;;;;;;4954162;28;20953;-73
2023/10/24 11:51:16;;;;;;;6.37;5.77;;;12.90;99.90;;;;;;4954955;28;20488;-73
2023/10/24 11:53:44;;;;;;;7.80;6.60;;;13.00;99.90;;;;;;4952689;28;20472;-73
2023/10/24 11:56:11;;;;;;;8.40;6.80;;;13.00;99.90;;;;;;4954732;28;20472;-73
2023/10/24 11:58:38;;;;;;;6.50;5.90;;;13.00;99.90;;;;;;4961980;28;20496;-72
2023/10/24 12:01:06;;;;;;;8.30;7.00;;;13.00;99.90;;;;;;4957940;28;20980;-72
2023/10/24 12:03:45;;;;;;;9.93;6.53;;;13.00;99.90;;;;;;4956991;28;20551;-72
2023/10/24 12:06:16;;;;;;;7.60;6.57;;;13.00;99.90;;;;;;4955470;28;20472;-74
2023/10/24 12:08:43;;;;;;;9.50;6.53;;;13.00;99.90;;;;;;4955417;28;20468;-74
2023/10/24 12:11:11;;;;;;;7.50;6.90;;;12.90;99.90;;;;;;4959856;28;20827;-72
2023/10/24 12:13:38;;;;;;;7.00;6.30;;;12.90;99.90;;;;;;4956251;28;20487;-73
2023/10/24 12:16:05;;;;;;;7.53;6.73;;;12.90;99.90;;;;;;4957264;28;20468;-73
2023/10/24 12:18:32;;;;;;;6.93;6.33;;;12.90;99.90;;;;;;4955316;28;20484;-73
2023/10/24 12:20:58;;;;;;;6.57;6.07;;;13.00;99.90;;;;;;4955360;28;20492;-73
2023/10/24 12:23:27;;;;;;;8.03;6.53;;;13.00;99.90;;;;;;4957978;28;20471;-73
2023/10/24 12:25:53;;;;;;;6.80;6.37;;;13.00;99.90;;;;;;4957888;28;20484;-73
2023/10/24 12:28:20;;;;;;;7.20;6.60;;;13.10;99.90;;;;;;4954938;28;20460;-72
2023/10/24 12:30:47;;;;;;;7.90;7.20;;;13.10;99.90;;;;;;4962965;28;20507;-73
2023/10/24 12:33:14;;;;;;;7.63;7.07;;;13.10;99.90;;;;;;4957035;28;20483;-73
2023/10/24 12:35:41;;;;;;;8.87;6.70;;;13.20;99.90;;;;;;4954513;28;20572;-73
2023/10/24 12:38:08;;;;;;;7.00;6.40;;;13.20;99.90;;;;;;4955426;28;20821;-73
2023/10/24 12:40:37;;;;;;;8.47;6.63;;;13.20;99.90;;;;;;4956969;28;20519;-73
2023/10/24 12:43:04;;;;;;;7.83;7.07;;;13.20;99.90;;;;;;4956331;28;20476;-73
2023/10/24 12:45:31;;;;;;;6.63;6.00;;;13.20;99.90;;;;;;4960928;28;20475;-73
2023/10/24 12:47:59;;;;;;;9.00;6.60;;;13.20;99.90;;;;;;4957541;28;20456;-72
2023/10/24 12:50:26;;;;;;;8.10;7.40;;;13.20;99.90;;;;;;4955560;28;20497;-73
2023/10/24 12:52:54;;;;;;;8.67;6.47;;;13.20;99.90;;;;;;4954806;28;20465;-73
2023/10/24 12:55:21;;;;;;;7.33;6.60;;;13.20;99.90;;;;;;4953821;28;20551;-72
2023/10/24 12:57:49;;;;;;;7.23;6.63;;;13.20;99.90;;;;;;4964325;28;20484;-73
2023/10/24 13:00:18;;;;;;;6.90;6.17;;;13.20;99.90;;;;;;4964981;28;20487;-73
2023/10/24 13:02:45;;;;;;;7.07;6.47;;;13.20;99.90;;;;;;4962992;28;20579;-72
2023/10/24 13:05:11;;;;;;;7.57;6.47;;;13.20;99.90;;;;;;4955429;28;20840;-73
2023/10/24 13:07:38;;;;;;;6.93;6.23;;;13.20;99.90;;;;;;4954596;28;20473;-73
2023/10/24 13:10:06;;;;;;;7.93;6.87;;;13.20;99.90;;;;;;4960465;28;20484;-73
2023/10/24 13:12:32;;;;;;;7.27;6.67;;;13.20;99.90;;;;;;4955921;28;20462;-73
2023/10/24 13:15:01;;;;;;;10.70;6.70;;;13.20;99.90;;;;;;4959235;28;20468;-73
2023/10/24 13:17:27;;;;;;;6.43;5.83;;;13.20;99.90;;;;;;4955684;28;20488;-73
2023/10/24 13:19:54;;;;;;;8.00;6.77;;;13.20;99.90;;;;;;4954429;28;20507;-73
2023/10/24 13:22:21;;;;;;;8.63;7.50;;;13.20;99.90;;;;;;4954393;28;20564;-73
2023/10/24 13:24:49;;;;;;;12.93;6.97;;;13.20;99.90;;;;;;4954763;28;20809;-72
2023/10/24 13:27:14;;;;;;;7.07;6.23;;;13.20;99.90;;;;;;4954025;28;20468;-72
2023/10/24 13:29:41;;;;;;;7.60;6.90;;;13.20;99.90;;;;;;4958255;28;20496;-72
2023/10/24 13:32:09;;;;;;;7.40;6.70;;;13.20;99.90;;;;;;4954016;28;20209;-73
2023/10/24 13:34:36;;;;;;;9.20;7.57;;;13.20;99.90;;;;;;4954343;28;20479;-73
2023/10/24 13:37:03;;;;;;;6.57;6.07;;;13.20;99.90;;;;;;4953859;28;20461;-72
2023/10/24 13:39:29;;;;;;;7.60;7.00;;;13.20;99.90;;;;;;4953935;28;20806;-73
2023/10/24 13:41:56;;;;;;;10.07;7.10;;;13.20;99.90;;;;;;4953940;28;20461;-73
2023/10/24 13:44:23;;;;;;;8.03;6.80;;;13.20;99.90;;;;;;4955928;28;20909;-73
2023/10/24 13:46:50;;;;;;;6.93;6.33;;;13.20;99.90;;;;;;4953523;28;20457;-73
2023/10/24 13:49:18;;;;;;;8.13;7.23;;;13.20;99.90;;;;;;4954140;28;20511;-73
2023/10/24 13:51:44;;;;;;;7.30;6.10;;;13.20;99.90;;;;;;4954043;28;20823;-74
2023/10/24 13:54:11;;;;;;;7.97;7.30;;;13.20;99.90;;;;;;4961087;28;20467;-73
2023/10/24 13:56:38;;;;;;;6.27;5.70;;;13.20;99.90;;;;;;4953708;28;20464;-73
2023/10/24 13:59:04;;;;;;;8.37;7.10;;;13.20;99.90;;;;;;4953143;28;20493;-73
2023/10/24 14:01:31;;;;;;;7.53;6.47;;;13.20;99.90;;;;;;4953915;28;20486;-73
2023/10/24 14:04:01;;;;;;;7.37;6.70;;;13.10;99.90;;;;;;4955453;28;20473;-74
2023/10/24 14:06:29;;;;;;;6.40;5.90;;;13.10;99.90;;;;;;4955891;28;20476;-74
2023/10/24 14:08:56;;;;;;;8.73;6.73;;;13.10;99.90;;;;;;4957388;28;20832;-74
2023/10/24 14:11:23;;;;;;;6.93;6.30;;;13.10;99.90;;;;;;4954137;28;20489;-73
2023/10/24 14:13:49;;;;;;;11.00;6.77;;;13.10;99.90;;;;;;4954508;28;20472;-74
2023/10/24 14:16:16;;;;;;;11.47;7.60;;;13.10;99.90;;;;;;4954360;28;20480;-74
2023/10/24 14:18:43;;;;;;;8.13;6.87;;;13.10;99.90;;;;;;4955538;28;20487;-73
2023/10/24 14:21:09;;;;;;;8.80;7.77;;;13.10;99.90;;;;;;4959306;28;20501;-74
2023/10/24 14:23:37;;;;;;;8.60;6.33;;;13.00;99.90;;;;;;4954794;28;20479;-73
2023/10/24 14:26:04;;;;;;;6.93;6.33;;;13.00;99.90;;;;;;4953506;28;20953;-73
2023/10/24 14:28:32;;;;;;;6.87;6.23;;;13.00;99.90;;;;;;4957089;28;20475;-73
2023/10/24 14:30:58;;;;;;;30.50;20.70;;;13.00;99.90;;;;;;4953785;28;20516;-72
2023/10/24 14:33:25;;;;;;;25.03;17.23;;;13.00;99.90;;;;;;4955576;28;20495;-72
2023/10/24 14:35:52;;;;;;;15.73;13.90;;;12.90;99.90;;;;;;4955566;28;20468;-72
2023/10/24 14:38:18;;;;;;;11.47;9.00;;;12.90;99.90;;;;;;4957767;28;20487;-72
2023/10/24 14:40:47;;;;;;;9.50;8.20;;;12.90;99.90;;;;;;4953193;28;20480;-72
2023/10/24 14:43:15;;;;;;;17.13;11.17;;;12.90;99.90;;;;;;4953884;28;20465;-72
2023/10/24 14:45:42;;;;;;;8.40;7.60;;;12.80;99.90;;;;;;4954113;28;20484;-72
2023/10/24 14:48:09;;;;;;;7.93;7.20;;;12.80;99.90;;;;;;4955553;28;20474;-72
2023/10/24 14:50:35;;;;;;;11.60;10.47;;;12.80;99.90;;;;;;4957129;28;21026;-72
2023/10/24 14:53:02;;;;;;;12.83;10.63;;;12.80;99.90;;;;;;4954047;28;20495;-73
2023/10/24 14:55:29;;;;;;;15.20;12.73;;;12.70;99.90;;;;;;4953716;28;22018;-71
2023/10/24 14:57:57;;;;;;;10.17;8.93;;;12.70;99.90;;;;;;4953670;28;20488;-72
2023/10/24 15:00:24;;;;;;;8.87;7.93;;;12.70;99.90;;;;;;4953851;28;20495;-72
2023/10/24 15:02:51;;;;;;;8.60;7.80;;;12.70;99.90;;;;;;4960451;28;20476;-72
2023/10/24 15:05:17;;;;;;;8.00;7.30;;;12.70;99.90;;;;;;4961326;28;20472;-72
2023/10/24 15:07:44;;;;;;;7.97;7.20;;;12.70;99.90;;;;;;4952936;28;20464;-72
2023/10/24 15:10:11;;;;;;;9.43;8.63;;;12.60;99.90;;;;;;4953144;28;20487;-72
2023/10/24 15:12:38;;;;;;;11.40;9.43;;;12.60;99.90;;;;;;4960455;28;20975;-72
2023/10/24 15:15:07;;;;;;;10.70;9.70;;;12.60;99.90;;;;;;4953282;28;20471;-72
2023/10/24 15:17:34;;;;;;;11.10;10.00;;;12.60;99.90;;;;;;4952684;28;20461;-72
2023/10/24 15:20:01;;;;;;;10.27;9.17;;;12.60;99.90;;;;;;4956612;28;20512;-72
2023/10/24 15:22:28;;;;;;;10.00;8.10;;;12.60;99.90;;;;;;4952503;28;20475;-71
2023/10/24 15:24:54;;;;;;;9.80;8.90;;;12.60;99.90;;;;;;4958942;28;21012;-71
2023/10/24 15:27:21;;;;;;;9.90;7.87;;;12.60;99.90;;;;;;4957269;28;20472;-72
2023/10/24 15:29:48;;;;;;;10.17;7.67;;;12.60;99.90;;;;;;4956164;28;20488;-72
2023/10/24 15:32:16;;;;;;;8.03;7.37;;;12.60;99.90;;;;;;4960958;28;20471;-72
2023/10/24 15:34:43;;;;;;;7.87;7.17;;;12.60;99.90;;;;;;4957601;28;20473;-72
2023/10/24 15:37:10;;;;;;;7.90;6.43;;;12.60;99.90;;;;;;4957350;28;20467;-71
2023/10/24 15:39:37;;;;;;;8.47;7.67;;;12.60;99.90;;;;;;4958298;28;20866;-72
2023/10/24 15:42:04;;;;;;;9.43;8.53;;;12.60;99.90;;;;;;4956460;28;20503;-72
2023/10/24 15:44:31;;;;;;;8.50;7.20;;;12.60;99.90;;;;;;4959940;28;20472;-73
2023/10/24 15:46:58;;;;;;;8.37;7.70;;;12.60;99.90;;;;;;4959435;28;20472;-73
2023/10/24 15:49:26;;;;;;;8.90;8.00;;;12.50;99.90;;;;;;4967364;28;20459;-73
2023/10/24 15:51:53;;;;;;;9.80;7.23;;;12.50;99.90;;;;;;4957331;28;20471;-73
2023/10/24 15:54:20;;;;;;;10.10;7.80;;;12.50;99.90;;;;;;4956002;28;20460;-73
2023/10/24 15:56:46;;;;;;;8.63;7.80;;;12.60;99.90;;;;;;4957677;28;20474;-73
2023/10/24 15:59:14;;;;;;;11.03;7.77;;;12.50;99.90;;;;;;4959890;28;20490;-73
2023/10/24 16:01:41;;;;;;;10.60;8.50;;;12.50;99.90;;;;;;4965119;28;21000;-72
2023/10/24 16:04:08;;;;;;;8.83;7.63;;;12.60;99.90;;;;;;4960581;28;20469;-72
2023/10/24 16:06:36;;;;;;;11.77;8.03;;;12.50;99.90;;;;;;4968928;28;20481;-72
2023/10/24 16:09:03;;;;;;;8.90;8.10;;;12.50;99.90;;;;;;4969815;28;20463;-73
2023/10/24 16:11:29;;;;;;;7.93;7.23;;;12.50;99.90;;;;;;4959475;28;20499;-73
2023/10/24 16:13:57;;;;;;;9.90;8.90;;;12.50;99.90;;;;;;4964176;28;20561;-72
2023/10/24 16:16:24;;;;;;;8.70;7.60;;;12.50;99.90;;;;;;4965350;28;20465;-72
2023/10/24 16:18:52;;;;;;;11.30;9.40;;;12.50;99.90;;;;;;4957791;28;20506;-73
2023/10/24 16:21:18;;;;;;;8.63;7.83;;;12.50;99.90;;;;;;4964859;28;20522;-72
2023/10/24 16:23:46;;;;;;;9.37;8.37;;;12.50;99.90;;;;;;4958243;28;20476;-73
2023/10/24 16:26:13;;;;;;;13.10;10.07;;;12.50;99.90;;;;;;4975925;23;20501;-73
2023/10/24 16:28:40;;;;;;;10.33;9.20;;;12.50;99.90;;;;;;4976224;28;20463;-73
2023/10/24 16:31:07;;;;;;;10.90;8.77;;;12.50;99.90;;;;;;4972196;28;20474;-72
2023/10/24 16:33:34;;;;;;;12.17;8.10;;;12.50;99.90;;;;;;4972451;28;20942;-72
2023/10/24 16:36:03;;;;;;;12.93;8.57;;;12.40;99.90;;;;;;4971468;28;20460;-72
2023/10/24 16:38:31;;;;;;;10.63;9.20;;;12.40;99.90;;;;;;4951598;29;20524;-72
2023/10/24 16:41:00;;;;;;;13.03;8.40;;;12.40;99.90;;;;;;4952096;28;20468;-72
2023/10/24 16:43:27;;;;;;;9.60;8.63;;;12.40;99.90;;;;;;4953406;28;20481;-71
2023/10/24 16:45:54;;;;;;;10.80;9.27;;;12.40;99.90;;;;;;4952986;28;20476;-72
2023/10/24 16:48:21;;;;;;;9.37;8.47;;;12.40;99.90;;;;;;4952784;29;20461;-71